Queen Elizabeth Olympic Park Winter 10K Series - March 02 03 2019 Results

Position First Name Last Name Gender Club Overall Time Category Gender Pos Net Time Categ Pos Action
1 Edward Mallett Male Clapham Chasers 00:34:04 Male Senior 1 00:34:02 1 Claim
2 Illya Male 00:34:13 Male Senior 2 00:34:13 2 Claim
3 Alfred Waithaka Male Havering Ac 00:35:23 MV40 3 00:35:16 1 Claim
4 Simon Gardiner Male 00:35:25 Male Senior 4 00:35:24 3 Claim
5 James Mccann Male 00:35:28 MV40 5 00:35:28 2 Claim
6 Joseph Bull Male 00:36:29 Male Senior 6 00:36:25 4 Claim
7 Alan Miller Male 00:36:35 Male Senior 7 00:36:32 5 Claim
8 John Cox Male Kent Athletic Club 00:36:46 MV40 8 00:36:45 3 Claim
9 Rosalind Female Herne Hill Harriers 00:37:02 Female Senior 1 00:37:00 1 Claim
10 Ryan Friel Male 00:37:11 Male Senior 9 00:37:08 6 Claim
11 Ludovic Hughes Male 00:37:33 Male Senior 10 00:37:32 7 Claim
12 Werner Kranenburg Male 00:37:53 MV40 11 00:37:52 4 Claim
13 Alex Robinson Male Mornington Chasers 00:38:02 Male Senior 12 00:37:59 8 Claim
14 George Male Clapham Chasers 00:38:19 Male Senior 13 00:38:15 9 Claim
15 Vincent Guillaume Male 00:38:20 Male Senior 14 00:38:15 10 Claim
16 Ben Rajan Male Leamington Cycling and Athletics Club 00:38:44 Male Senior 15 00:38:43 11 Claim
17 Nicky Driver Male 00:38:56 Male Senior 16 00:38:53 12 Claim
18 Peter Fairlamb Male Orion Harriers 00:38:57 Male Senior 17 00:38:55 13 Claim
19 Paul Suett Male Dagenham 88 Runners 00:38:59 MV40 18 00:38:57 5 Claim
20 Nigel Swinburne Male Dagenham 88 Runners 00:39:06 Male Senior 19 00:39:04 14 Claim
21 Paul Shotton Male Wimbledon Windmilers 00:39:13 Male Senior 20 00:39:13 15 Claim
22 Matt Mair Male London Heathside AC 00:39:26 Male Senior 21 00:39:14 16 Claim
23 Joshua Price Male 00:39:35 Male Senior 22 00:39:35 17 Claim
24 Oliver Varney Male 00:39:41 Male Senior 23 00:39:34 18 Claim
25 Gareth Davies Male 00:40:01 Male Senior 24 00:39:54 19 Claim
26 Paul Marshall Male 00:40:09 Male Senior 25 00:39:55 20 Claim
27 Alex Barker Male 00:40:15 Male Senior 26 00:40:09 21 Claim
28 Adrian Huntley Male Lacey Green Harriers 00:40:16 MV50 27 00:40:12 1 Claim
29 Danny Keston Male 00:40:16 Male Senior 28 00:40:07 22 Claim
30 Donald Matheson Male Donald Matheson 00:40:36 MV40 29 00:40:31 6 Claim
31 John Baldock Male 00:40:49 Male Senior 30 00:40:35 23 Claim
32 William Reedman-White Male 00:40:52 Male Senior 31 00:40:45 24 Claim
33 Lowendo Stevens Male Wimbledon Windmilers 00:40:56 Male Senior 32 00:40:49 25 Claim
34 Alex Wilson Male 00:41:08 Male Senior 33 00:40:36 26 Claim
35 Hazel Norton-Hale Female Victoria Park Harriers and Tower Hamlets Athletics Club 00:41:30 Female Senior 2 00:41:26 2 Claim
36 Lily Female 00:41:31 Female Senior 3 00:41:28 3 Claim
37 Peter Male 00:41:35 MV50 34 00:41:26 2 Claim
38 Michael Jones Male 00:41:50 Male Senior 35 00:41:43 27 Claim
39 Mark Stafford Male 00:41:53 MV40 36 00:41:49 7 Claim
40 Paul Schroder Male Harlow RC 00:41:53 Male Senior 37 00:41:48 28 Claim
41 Nicholas Horton Male 00:41:54 Male Senior 38 00:41:40 29 Claim
42 Thomas Curtin Male 00:41:54 Male Senior 39 00:41:36 30 Claim
43 Antonio Maraia Male 00:41:55 MV50 40 00:41:52 3 Claim
44 Nathan Greenwood Male 00:41:55 Male Senior 41 00:41:50 31 Claim
45 Thomas Flintoff Male 00:41:59 Male Senior 42 00:41:44 32 Claim
46 Darren Winterford Male 00:42:14 MV40 43 00:41:46 8 Claim
47 Lloyd Nicely Male 00:42:20 MV40 44 00:42:01 9 Claim
48 Heather Graz Female Usk Runners 00:42:24 FV40 4 00:42:21 1 Claim
49 Benoit Planchais Male 00:42:31 Male Senior 45 00:42:25 33 Claim
50 William Dunkley Male 00:42:50 Male Senior 46 00:42:34 34 Claim
51 Jonathan Cooper Male 00:42:53 Male Senior 47 00:42:35 35 Claim
52 James Long Male 00:42:53 Male Senior 48 00:42:34 36 Claim
53 Michael Graz Male Usk Runners 00:43:00 MV40 49 00:42:58 10 Claim
54 Chris Worley Male 00:43:05 Male Senior 50 00:42:53 37 Claim
55 Yusuf Firat Male Haverhill RC 00:43:08 MV50 51 00:42:35 4 Claim
56 Lloyd Miles Male Billericay Striders 00:43:10 MV50 52 00:42:48 5 Claim
57 Trevor Holden Male Hillingdon Triathletes 00:43:14 MV50 53 00:43:06 6 Claim
58 James Whittaker Male 00:43:14 Male Senior 54 00:42:08 38 Claim
59 Yuki Tamura Male 00:43:21 Male Senior 55 00:43:17 39 Claim
60 Carl Mitchell Male 00:43:28 MV40 56 00:43:14 11 Claim
61 Christopher Windsor Male 00:43:29 Male Senior 57 00:43:13 40 Claim
62 Jonathan Parker Male London Heathside AC 00:43:39 Male Senior 58 00:43:33 41 Claim
63 Ross Pepper Male 00:43:41 Male Senior 59 00:43:00 42 Claim
64 Estle Viljoen Female 00:43:48 FV40 5 00:43:41 2 Claim
65 Chris Scott Male 00:44:00 Male Senior 60 00:43:21 43 Claim
66 David Jellett Male 00:44:11 Male Senior 61 00:44:01 44 Claim
67 Hamish McLAughlin Male 00:44:14 Male Senior 62 00:43:59 45 Claim
68 Liam Cumber Male Folkestone running club 00:44:21 Male Senior 63 00:44:06 46 Claim
69 Jonathan Morris Male 00:44:26 Male Senior 64 00:44:22 47 Claim
70 Barry Oldfield Male 00:44:27 Male Senior 65 00:44:17 48 Claim
71 Niamh Vincent Female Striders of Croydon 00:44:33 Female Senior 6 00:44:19 4 Claim
72 Alicia Ellison Female 00:44:35 Female Senior 7 00:44:31 5 Claim
73 Ben Nurser Male 00:44:39 Male Senior 66 00:44:26 49 Claim
74 Sam Halsall Male 00:44:44 Male Senior 67 00:44:32 50 Claim
75 Owen Pamphilon Male 00:44:49 Male Senior 68 00:44:47 51 Claim
76 Anthony Blanchard Male 00:44:51 MV40 69 00:44:25 12 Claim
77 Tony Collins Male Havering Ac 00:44:56 MV40 70 00:44:48 13 Claim
78 Luke Bettesworth Male 00:45:11 Male Senior 71 00:44:48 52 Claim
79 Luke Johnson Male 00:45:12 Male Senior 72 00:44:22 53 Claim
80 Gerard Terblanche Male 00:45:14 MV40 73 00:45:04 14 Claim
81 Jack Fairhurst Male 00:45:20 Male Senior 74 00:45:13 54 Claim
82 David Stockwell Male Orion Harriers 00:45:32 MV50 75 00:45:28 7 Claim
83 Ben Clark Male 00:45:36 Male Senior 76 00:45:30 55 Claim
84 Aldo MUSSI Male Cobra RTC 00:45:39 MV50 77 00:45:28 8 Claim
85 Will Gobey Male 00:45:48 Male Senior 78 00:45:37 56 Claim
86 Simon Hiscox Male 00:45:54 Male Senior 79 00:45:23 57 Claim
87 Harry Mckerrell Male 00:46:04 Male Senior 80 00:45:24 58 Claim
88 Daniel Fox Male 00:46:05 MV40 81 00:45:20 15 Claim
89 Helena Parker Female 00:46:08 Female Senior 8 00:46:01 6 Claim
90 Michael Haffenden Male 00:46:13 MV40 82 00:46:09 16 Claim
91 Ruth Adams Female 00:46:15 Female Senior 9 00:46:15 7 Claim
92 Peter Ballard Male 00:46:22 MV60 83 00:46:19 1 Claim
93 Emily Female 00:46:23 Female Senior 10 00:45:55 8 Claim
94 Ollie Cox Male 00:46:27 Male Senior 84 00:45:44 59 Claim
95 Simon Mc Male 00:46:28 Male Senior 85 00:46:14 60 Claim
96 David Dobbs Male 00:46:29 MV40 86 00:46:29 17 Claim
97 Chris Mullan Male 00:46:31 Male Senior 87 00:46:01 61 Claim
98 Colin Ballbach Male 00:46:32 Male Senior 88 00:46:28 62 Claim
99 Dale Gibbons Male 00:46:34 Male Senior 89 00:46:28 63 Claim
100 Terri Wood Female 00:46:41 Female Senior 11 00:46:36 9 Claim
101 Matt Smith Male 00:46:41 Male Senior 90 00:46:41 64 Claim
102 Robert Botkai Male 00:46:42 MV50 91 00:46:33 9 Claim
103 Gregory Corcoran Male 00:46:44 Male Senior 92 00:46:05 65 Claim
104 Leah Templestein Female 00:46:47 Female Senior 12 00:46:35 10 Claim
105 John Ramsden Male 00:46:54 Male Senior 93 00:46:32 66 Claim
106 Jeremy Beal Male 00:47:09 Male Senior 94 00:46:40 67 Claim
107 Hannah Brellisford Female 00:47:10 Female Senior 13 00:46:47 11 Claim
108 Emma Barker Female Rugby & Northampton AC 00:47:16 Female Senior 14 00:47:01 12
109 Daniel Carroll Male Orion Harriers 00:47:26 Male Senior 95 00:47:15 68 Claim
110 Mathew Edwards Male 00:47:27 Male Senior 96 00:47:11 69 Claim
111 Anna McIvor Female 00:47:30 Female Senior 15 00:47:12 13 Claim
112 Steve Klein Male 00:47:31 Male Senior 97 00:46:43 70 Claim
113 Anthony Hua Male 00:47:31 Male Senior 98 00:46:36 71 Claim
114 Donna Wilkins Female Orion Harriers 00:47:32 FV40 16 00:47:22 3 Claim
115 Gemma Walmsley Female 00:47:33 Female Senior 17 00:47:03 14 Claim
116 Paul Saunders Male 00:47:58 MV50 99 00:47:35 10
117 Nurhan Okur Female London Midnight Runners 00:48:04 Female Senior 18 00:47:56 15 Claim
118 Will Crossley Male 00:48:06 Male Senior 100 00:47:33 72 Claim
119 Steve Sawyer Male 00:48:10 Male Senior 101 00:47:57 73 Claim
120 Polly Rawlinson Female 00:48:12 FV40 19 00:47:58 4 Claim
121 Stephen Ferdinando Male 00:48:15 Male Senior 102 00:48:12 74 Claim
122 Robert Van Male 00:48:17 MV40 103 00:47:54 18 Claim
123 Shaun Kershaw Male Rebecca Kershaw 00:48:18 Male Senior 104 00:47:31 75 Claim
124 Jane Ford Female 00:48:26 Female Senior 20 00:47:40 16 Claim
125 Dawinder Singh Male 00:48:31 Male Senior 105 00:48:24 76 Claim
126 Jonathan Rogers Female 00:48:31 Female Senior 21 00:47:46 17 Claim
127 Louis Greenwood Male 00:48:39 Male Senior 106 00:48:18 77 Claim
128 David Wootton Male 00:48:42 Male Senior 107 00:48:41 78 Claim
129 Lucy Freeman Female 00:48:46 Female Senior 22 00:48:28 18 Claim
130 Steven Gleave Male 00:48:48 Male Senior 108 00:48:40 79 Claim
131 Danny Graham Male 00:48:49 Male Senior 109 00:48:29 80 Claim
132 Andy Johnson Male 00:48:50 Male Senior 110 00:48:21 81 Claim
133 Harry Tayler Male 00:48:50 Male Senior 111 00:48:29 82 Claim
134 David Arnold Male 00:48:58 Male Senior 112 00:48:41 83 Claim
135 Richard Solomons Male Highgate Harriers 00:49:08 MV70 113 00:48:56 1 Claim
136 Oliver Williams Male 00:49:13 Male Senior 114 00:48:33 84 Claim
137 Henry Metcalf Male 00:49:13 Male Senior 115 00:48:57 85 Claim
138 Victoria Ross Female 00:49:17 Female Senior 23 00:49:08 19 Claim
139 Brett Still Male 00:49:17 Male Senior 116 00:48:36 86 Claim
140 Daniel Jones Male 00:49:28 Male Senior 117 00:48:29 87 Claim
141 Gareth John Male 00:49:31 Male Senior 118 00:49:22 88 Claim
142 Maria Faulkner Female Chelmer RoadRunners 00:49:35 FV40 24 00:49:35 5 Claim
143 Stefano Rinaldi Male 00:49:39 Male Senior 119 00:49:19 89 Claim
144 Gail Nicholls Female Harlow RC 00:49:46 FV50 25 00:49:27 1 Claim
145 Alex Worth Male 00:49:52 Male Senior 120 00:49:52 90 Claim
146 Tessa Hayden Female 00:50:07 Female Senior 26 00:49:27 20 Claim
147 Phil Hine Male 00:50:10 Male Senior 121 00:50:04 91 Claim
148 Fozlul Hoque Male 00:50:20 Male Senior 122 00:49:22 92 Claim
149 Hannah Widgington Female 00:50:21 Female Senior 27 00:49:36 21 Claim
150 Damien Ladwa Male 00:50:23 Male Senior 123 00:49:45 93 Claim
151 Billy Ryan Male 00:50:26 Male Senior 124 00:49:43 94 Claim
152 Darrell Overbay Male 00:50:29 MV40 125 00:50:01 19 Claim
153 Tim Morgan Male 00:50:31 Male Senior 126 00:50:23 95 Claim
154 Denise Martin Female 00:50:43 Female Senior 28 00:50:13 22 Claim
155 Leanne Tucker Female 00:50:44 Female Senior 29 00:50:13 23 Claim
156 Inga Schmitt Female 00:50:48 Female Senior 30 00:50:06 24 Claim
157 Laura Prime Female Harlow RC 00:50:51 FV40 31 00:50:32 6 Claim
158 Blaine Cartin Male 00:50:56 Male Senior 127 00:50:38 96 Claim
159 PAUL WILLIAMS Male London Fields Triathlon Club 00:50:57 MV50 128 00:50:30 11 Claim
160 Sam Seely Male 00:50:58 Male Senior 129 00:49:56 97 Claim
161 Sofiane Hajri Male 00:50:59 Male Senior 130 00:50:49 98 Claim
162 Ben Perfitt Male 00:51:07 Male Senior 131 00:49:57 99 Claim
163 Ade Brown Male 00:51:12 Male Senior 132 00:51:02 100 Claim
164 Cathy Francica Female 00:51:12 Female Senior 32 00:51:07 25 Claim
165 Carlos Jones Male 00:51:17 MV40 133 00:51:06 20 Claim
166 Elizabeth Loughran Female 00:51:19 Female Senior 33 00:50:35 26 Claim
167 John Darcy Male 00:51:21 MV40 134 00:50:53 21 Claim
168 Gary Perle Male 00:51:22 MV40 135 00:51:04 22 Claim
169 Amy Hall Female 00:51:23 Female Senior 34 00:51:08 27 Claim
170 Angus Macrae Male 00:51:24 Male Senior 136 00:50:16 101 Claim
171 Joseph Ingram Male 00:51:28 Male Senior 137 00:51:10 102 Claim
172 Artur Spala Male 00:51:34 Male Senior 138 00:51:12 103 Claim
173 Carl Jakobsson Male 00:51:34 MV40 139 00:51:06 23 Claim
174 Daniel Appleby Male 00:51:35 Male Senior 140 00:51:25 104 Claim
175 David Cox Male 00:51:37 MV50 141 00:50:54 12 Claim
176 Daniel Inegbenose Male 00:51:37 Male Senior 142 00:51:37 105 Claim
177 Sheena Mac Female 00:51:37 Female Senior 35 00:51:16 28 Claim
178 Anna McKie Female 00:51:43 Female Senior 36 00:51:07 29 Claim
179 Claire Fieldus Female 00:51:44 Female Senior 37 00:50:53 30 Claim
180 Mark Fisher Male 00:51:46 MV50 143 00:51:07 13 Claim
181 Jonathan Arthur Male 00:51:55 Male Senior 144 00:51:45 106 Claim
182 Ellie Wilson Female 00:51:56 Female Senior 38 00:51:32 31 Claim
183 Gerard Oconnell Male Thames Valley Harriers 00:51:57 MV50 145 00:51:47 14 Claim
184 Chris Davies Male 00:52:05 MV60 146 00:52:02 2 Claim
185 Peter Holmes Male 00:52:08 Male Senior 147 00:51:21 107 Claim
186 John Reidy Male 00:52:09 Male Senior 148 00:51:59 108 Claim
187 Isaac Esho Male 00:52:22 Male Senior 149 00:51:50 109 Claim
188 Tilly Dyson Female 00:52:24 Female Senior 39 00:52:02 32 Claim
189 Gustaf Stenlund Male 00:52:25 Male Senior 150 00:51:56 110 Claim
190 Charchit Pradhan Male 00:52:26 Male Senior 151 00:51:51 111 Claim
191 Ian Bannell Male 00:52:27 Male Senior 152 00:52:14 112 Claim
192 Lucy Benham Female 00:52:28 Female Senior 40 00:52:20 33 Claim
193 Ciaran O'Laoire Male 00:52:29 Male Senior 153 00:51:16 113 Claim
194 John Gulliver Male 00:52:32 MV40 154 00:52:19 24 Claim
195 Peter Howard Male 00:52:32 Male Senior 155 00:51:48 114 Claim
196 Maureen Sims Female 00:52:34 Female Senior 41 00:52:05 34 Claim
197 Catriona Stringer Female 00:52:34 FV40 42 00:51:32 7 Claim
198 Francesca Quinn Female 00:52:34 Female Senior 43 00:52:19 35 Claim
199 Colin Fernandez-Grant Male 00:52:37 MV40 156 00:51:36 25 Claim
200 Philippa Hammond Female 00:52:37 Female Senior 44 00:52:18 36 Claim
201 Cheryl Macdonald Female Pitsea Running Club 00:52:41 FV50 45 00:52:19 2 Claim
202 Chris Daniels Male 00:52:41 Male Senior 157 00:52:31 115 Claim
203 Emmanuel Muyot Male Geraldine Muyot 00:52:45 MV40 158 00:52:26 26 Claim
204 Pollyanna Boucherat Female 00:52:46 Female Senior 46 00:52:10 37 Claim
205 Chris Bolton-Clarke Male 00:52:50 MV40 159 00:51:59 27 Claim
206 Jemma Gallagher Female 00:52:52 Female Senior 47 00:51:47 38 Claim
207 Molly McKinnel Female 00:53:03 Female Senior 48 00:52:00 39 Claim
208 Tyronne Quarrie Male 00:53:04 Male Senior 160 00:53:04 116 Claim
209 Rachel Ferguson Female 00:53:05 Female Senior 49 00:52:56 40 Claim
210 Peter Creavin Male 00:53:06 MV50 161 00:53:06 15 Claim
211 Nina Goldman Female 00:53:08 Female Senior 50 00:52:23 41 Claim
212 Benjamin Smith Male 00:53:08 Male Senior 162 00:53:04 117 Claim
213 Fionnuala Ratcliffe Female 00:53:09 Female Senior 51 00:52:24 42 Claim
214 Nav Johal Male 00:53:14 MV40 163 00:52:25 28 Claim
215 Jon Ellwood Male 00:53:17 Male Senior 164 00:53:01 118 Claim
216 Victoria Fellows Female 00:53:17 Female Senior 52 00:52:14 43 Claim
217 Harriet-Nora Hearle Female 00:53:21 Female Senior 53 00:52:50 44 Claim
218 Peter Byrd Male 00:53:22 MV50 165 00:52:55 16 Claim
219 Peter Gostling Male 00:53:23 Male Senior 166 00:52:35 119 Claim
220 Adam Desborough Male 00:53:23 Male Senior 167 00:53:23 120 Claim
221 Paul Schmidt Male 00:53:24 MV50 168 00:52:52 17 Claim
222 Julie Snell Female 00:53:25 Female Senior 54 00:53:15 45 Claim
223 Francesca Female 00:53:32 Female Senior 55 00:52:49 46 Claim
224 Joss Smith Female 00:53:34 Female Senior 56 00:52:16 47 Claim
225 Sorge Oconnell Male 00:53:37 Male Senior 169 00:53:37 121 Claim
226 Kishoj Yogan Male 00:53:37 Male Senior 170 00:53:23 122 Claim
227 Mark Pearson Male 00:53:37 Male Senior 171 00:53:23 123 Claim
228 Andrew Tomkinson Male 00:53:38 MV40 172 00:53:12 29 Claim
229 Gabrielle Sims Female 00:53:40 Female Senior 57 00:53:19 48 Claim
230 Cath Golder Female 00:53:42 FV50 58 00:53:16 3 Claim
231 Ben Smith Male 00:53:56 Male Senior 173 00:52:39 124 Claim
232 James Heron Male 00:53:59 Male Senior 174 00:53:14 125 Claim
233 Linh Lam Female 00:54:01 Female Senior 59 00:52:54 49 Claim
234 Caroline Good Female 00:54:02 Female Senior 60 00:53:33 50 Claim
235 Amaritpal Uppal Male 00:54:02 Male Senior 175 00:54:02 126 Claim
236 Katie James Female 00:54:05 Female Senior 61 00:53:36 51 Claim
237 Charlotte Killingback Female Pitsea Running Club 00:54:07 Female Senior 62 00:53:42 52 Claim
238 Stephen Sheekey Male Havering '90 Joggers 00:54:07 MV50 176 00:53:20 18 Claim
239 Sarah Alessio Female 00:54:07 FV40 63 00:53:38 8 Claim
240 Robert Thompson Male 00:54:07 MV60 177 00:53:03 3 Claim
241 David Hawley Male 00:54:08 Male Senior 178 00:53:54 127 Claim
242 Rob Wilson Male 00:54:09 Male Senior 179 00:53:10 128 Claim
243 Steve Kemp Male 00:54:09 MV50 180 00:53:50 19 Claim
244 Nick Wadsworth Male 00:54:14 Male Senior 181 00:54:14 129 Claim
245 Emily Hua Female 00:54:25 Female Senior 64 00:53:31 53 Claim
246 Shannon Overbay Female 00:54:27 FV40 65 00:54:01 9 Claim
247 TAYA UDDIN Female 00:54:29 Female Senior 66 00:54:00 54 Claim
248 David Cribbs Male 00:54:29 MV40 182 00:54:09 30 Claim
249 Victoria Campbell Female 00:54:31 Female Senior 67 00:54:01 55 Claim
250 Thomas Cowell Male 00:54:31 Male Senior 183 00:53:41 130 Claim
251 Nathan Bergin Male 00:54:36 Male Senior 184 00:53:45 131 Claim
252 Oliver Mann Male 00:54:42 Male Senior 185 00:54:11 132 Claim
253 Andrew Palmer Male 00:54:50 MV50 186 00:54:23 20 Claim
254 Duncan Keary Male 00:54:50 Male Senior 187 00:54:20 133 Claim
255 Rosanna Female 00:55:01 Female Senior 68 00:54:24 56 Claim
256 Emma Vincent Female Dagenham 88 Runners 00:55:02 Female Senior 69 00:55:02 57 Claim
257 Katherine Hodge Female 00:55:02 Female Senior 70 00:54:45 58 Claim
258 David Bird Male 00:55:05 Male Senior 188 00:54:30 134 Claim
259 Janice Norris Female 00:55:07 FV50 71 00:54:28 4 Claim
260 Muriel OReilly Female 00:55:08 FV60 72 00:54:46 1 Claim
261 Tom Becker Male 00:55:13 Male Senior 189 00:55:06 135 Claim
262 Kevin Stride Male 00:55:13 MV40 190 00:54:49 31 Claim
263 Francis D'Souza Male 00:55:13 MV40 191 00:54:25 32 Claim
264 Adam Mellotte Male 00:55:14 MV40 192 00:54:43 33 Claim
265 Paulo Leonardo Male 00:55:14 MV50 193 00:55:07 21 Claim
266 Mauro Vairetti Male 00:55:14 Male Senior 194 00:54:43 136 Claim
267 Jo Sharp Female 00:55:22 Female Senior 73 00:54:35 59 Claim
268 Colleen Paulse Female 00:55:23 FV40 74 00:54:58 10 Claim
269 Alex New Female 00:55:24 FV40 75 00:54:42 11 Claim
270 Joe Roberts Male Ipswich Jaffa RC 00:55:25 Male Senior 195 00:54:23 137 Claim
271 Jess Collett Female 00:55:26 Female Senior 76 00:54:36 60 Claim
272 En Liang Male 00:55:30 Male Senior 196 00:55:25 138 Claim
273 Eugenio Martin-Fougeroux Male 00:55:32 Male Senior 197 00:54:36 139 Claim
274 Carla Nichols Female 00:55:41 Female Senior 77 00:55:36 61 Claim
275 Susie Burrows Female 00:55:48 Female Senior 78 00:55:15 62 Claim
276 Faith Male 00:55:51 Male Senior 198 00:54:42 140 Claim
277 Courtney Cote Female 00:55:52 Female Senior 79 00:55:15 63 Claim
278 Ginnie Tuck Female 00:55:52 Female Senior 80 00:55:15 64 Claim
279 Joanna Clark Female 00:55:53 FV40 81 00:55:36 12 Claim
280 Molly Desrochers Female 00:55:54 Female Senior 82 00:55:17 65 Claim
281 Emma Ellwood Female 00:55:54 Female Senior 83 00:55:16 66 Claim
282 Jo Wade Female 00:55:59 Female Senior 84 00:54:56 67 Claim
283 Samantha Body Female 00:56:06 Female Senior 85 00:55:16 68 Claim
284 Robin Norton-hale Female Victoria Park Harriers and Tower Hamlets Athletics Club 00:56:12 Female Senior 86 00:55:30 69 Claim
285 Sophia Javeri Female 00:56:13 Female Senior 87 00:55:12 70 Claim
286 Eric Male 00:56:14 Male Senior 199 00:55:52 141 Claim
287 Charlotte Fleming Female 00:56:16 Female Senior 88 00:55:37 71 Claim
288 Emdad Rahman Male 00:56:16 MV40 200 00:56:04 34 Claim
289 Nabeel Alhassan Male 00:56:20 Male Senior 201 00:55:17 142 Claim
290 Josh Van Male 00:56:22 Male Senior 202 00:55:30 143 Claim
291 Micah Ridling Male 00:56:22 Male Senior 203 00:55:56 144 Claim
292 Caroline Crofts Female 00:56:24 FV50 89 00:55:47 5 Claim
293 Paul Hannay Male 00:56:27 Male Senior 204 00:56:10 145 Claim
294 Gary Docherty Male 00:56:29 Male Senior 205 00:55:36 146
295 Milo Bouquet Male 00:56:34 Male Senior 206 00:55:33 147 Claim
296 Milena Stankovic Female 00:56:41 Female Senior 90 00:56:19 72 Claim
297 Ciara Smith Female 00:56:41 Female Senior 91 00:56:02 73 Claim
298 Simon Brunner Male 00:56:42 Male Senior 207 00:56:20 148 Claim
299 Sally Cockcroft Female 00:56:47 FV50 92 00:56:28 6 Claim
300 Nola Walker Female 00:56:51 Female Senior 93 00:56:30 74 Claim
301 Gabj Hatfield Female 00:56:55 Female Senior 94 00:56:33 75 Claim
302 Helena Lang Female 00:56:56 Female Senior 95 00:56:36 76 Claim
303 Natalie Reid Female 00:56:58 Female Senior 96 00:56:31 77 Claim
304 Sarah Waite Female 00:57:02 Female Senior 97 00:56:54 78 Claim
305 Steve Ellis Male 00:57:05 MV60 208 00:57:05 4 Claim
306 Anita Ernszt Female 00:57:10 Female Senior 98 00:56:21 79 Claim
307 William Archer Male 00:57:13 Male Senior 209 00:57:13 149 Claim
308 Peter Tse Male 00:57:14 Male Senior 210 00:56:31 150 Claim
309 Paul Horgan Male 00:57:23 MV40 211 00:56:45 35 Claim
310 Hannah Devine Female 00:57:24 Female Senior 99 00:56:14 80 Claim
311 Emile Thompson Male 00:57:25 Male Senior 212 00:56:16 151 Claim
312 Nathan Singh Male 00:57:32 Male Senior 213 00:56:26 152 Claim
313 Prohad Khan Male 00:57:35 Male Senior 214 00:56:57 153 Claim
314 George Regan Male 00:57:36 Male Senior 215 00:57:09 154 Claim
315 Susan Holland Female Istead & Ifield harriers 00:57:36 FV50 100 00:56:59 7 Claim
316 Kunal Sonagara Male 00:57:51 Male Senior 216 00:56:53 155 Claim
317 Chris Porter Male 00:57:52 Male Senior 217 00:57:05 156 Claim
318 Sarah Bruce Female 00:57:55 Female Senior 101 00:57:05 81 Claim
319 Charlie Thackeray Male 00:57:57 MV40 218 00:57:25 36 Claim
320 Narinder Singh Male 00:57:58 MV50 219 00:57:00 22 Claim
321 John Jenden Male 00:57:58 MV50 220 00:57:16 23 Claim
322 Lauren Hall Female 00:58:00 Female Senior 102 00:57:25 82 Claim
323 Roger Wallace Male Ranelagh Harriers 00:58:01 MV40 221 00:57:28 37 Claim
324 Anthony Campbell Male 00:58:07 Male Senior 222 00:57:34 157 Claim
325 Victoria Female 00:58:13 Female Senior 103 00:57:33 83 Claim
326 Mhairi Stewart Female 00:58:17 Female Senior 104 00:57:42 84 Claim
327 Gary Salthouse Male 00:58:17 Male Senior 223 00:57:09 158 Claim
328 Rosalind Smith Female 00:58:26 Female Senior 105 00:57:26 85 Claim
329 Jack Allen Male 00:58:27 Male Senior 224 00:57:57 159 Claim
330 Alan Ward Male 00:58:29 Male Senior 225 00:57:22 160 Claim
331 Jason Hetterley Male 00:58:29 MV40 226 00:58:19 38 Claim
332 Laura Cranfield Female Chelmer RoadRunners 00:58:35 FV40 106 00:58:19 13 Claim
333 Kris Davies Male 00:58:37 Male Senior 227 00:57:59 161 Claim
334 Saiful Islam Male 00:58:37 MV40 228 00:58:09 39 Claim
335 Aisha Babalakin Female 00:58:39 Female Senior 107 00:58:17 86 Claim
336 Natalie Female 00:58:40 Female Senior 108 00:58:06 87 Claim
337 Ian Tucker Male 00:58:47 MV50 229 00:58:14 24 Claim
338 Dan Beeby Male 00:58:54 MV40 230 00:57:59 40 Claim
339 Marion Breeze Female Pitsea Running Club 00:58:58 FV50 109 00:58:31 8 Claim
340 Cedric Montagnon Male 00:59:03 Male Senior 231 00:58:00 162 Claim
341 Emma Hiscox Female 00:59:04 Female Senior 110 00:58:32 88 Claim
342 Shumon Ali Male 00:59:06 Male Senior 232 00:58:14 163 Claim
343 Richard Simpson Male 00:59:11 MV40 233 00:58:07 41 Claim
344 Emma Wilkins Female Orion Harriers 00:59:29 Female Senior 111 00:59:04 89 Claim
345 Louise Man Female 00:59:30 Female Senior 112 00:58:54 90 Claim
346 Rajan Shah Male 00:59:32 Male Senior 234 00:59:18 164 Claim
347 Louise Cunnah Female 00:59:33 Female Senior 113 00:59:22 91 Claim
348 Mauro Ciuto Male 00:59:33 MV40 235 00:59:33 42 Claim
349 Joanna Burton Female 00:59:35 Female Senior 114 00:59:24 92 Claim
350 Lucie Brown Female 00:59:40 FV40 115 00:59:15 14 Claim
351 Ellen Storrar Female 00:59:43 Female Senior 116 00:59:43 93 Claim
352 Rachel Stone Female 00:59:52 FV40 117 00:59:17 15 Claim
353 Darragh Griffin Male 00:59:53 Male Senior 236 00:59:04 165 Claim
354 Janet Head Female Pitsea Running Club 00:59:56 FV60 118 00:59:31 2 Claim
355 Nicola King Female 00:59:57 Female Senior 119 00:59:04 94 Claim
356 Laura Heath Female 00:59:58 Female Senior 120 00:59:09 95 Claim
357 Chris Doolan Male 00:59:58 Male Senior 237 00:59:32 166 Claim
358 Ben Bartram Male 00:59:59 Male Senior 238 00:59:34 167 Claim
359 Caitlin Bays Female 01:00:02 Female Senior 121 00:59:12 96 Claim
360 Hannah Meads Female 01:00:04 Female Senior 122 00:59:18 97 Claim
361 Charlotte Dawson Female 01:00:06 Female Senior 123 00:59:08 98 Claim
362 Sadie Twigger Female Momart 01:00:07 Female Senior 124 00:59:19 99 Claim
363 Henryk Zwierzykowski Male 01:00:20 MV50 239 00:59:43 25 Claim
364 Linda Hall Female Watford Joggers 01:00:21 FV60 125 00:59:36 3 Claim
365 James Holmes Male 01:00:25 Male Senior 240 00:59:07 168 Claim
366 Rea Christofi Female 01:00:29 FV40 126 01:00:05 16 Claim
367 Nitish Doolub Male 01:00:34 Male Senior 241 01:00:05 169 Claim
368 Elaine Thompson Female Eton Manor AC 01:00:38 FV50 127 01:00:03 9 Claim
369 Marcus Griffin Male 01:00:39 MV40 242 00:59:44 43 Claim
370 Ann Marie Female 01:00:43 FV40 128 00:59:45 17 Claim
371 Dan Vincent Male 01:00:45 Male Senior 243 00:59:39 170 Claim
372 Louise Female 01:00:45 Female Senior 129 00:59:47 100 Claim
373 Anna Garfit Female 01:00:46 Female Senior 130 00:59:42 101 Claim
374 Alia Trevanion Female 01:00:49 Female Senior 131 00:59:44 102 Claim
375 Kayleigh Nye Female 01:00:53 Female Senior 132 00:59:55 103 Claim
376 Adrian Wickham Male 01:01:00 MV40 244 01:00:19 44 Claim
377 Jess Pike Female 01:01:01 Female Senior 133 01:00:03 104 Claim
378 Sarah Briault-smith Female 01:01:03 Female Senior 134 01:00:11 105 Claim
379 Ellie Swan Female 01:01:12 Female Senior 135 01:00:36 106 Claim
380 Bethany Quinlan Female 01:01:14 Female Senior 136 01:00:17 107 Claim
381 Catherine Schmidt Female 01:01:19 Female Senior 137 01:00:48 108 Claim
382 Abbie Female 01:01:20 Female Senior 138 01:00:40 109 Claim
383 Violetta Kupper Female 01:01:22 Female Senior 139 01:00:33 110 Claim
384 Sarah Mccarthy Female 01:01:36 Female Senior 140 01:00:28 111 Claim
385 Sibel Do Female 01:01:37 FV40 141 01:01:09 18 Claim
386 Jen Lott Female 01:01:38 FV40 142 01:00:58 19 Claim
387 Teresa Nurser Female 01:01:51 FV50 143 01:01:36 10 Claim
388 Aaron Robinson Male 01:01:55 Male Senior 245 01:01:45 171 Claim
389 Malgorzata Kotynia Female 01:01:55 Female Senior 144 01:01:33 112 Claim
390 Elizabeth Mclellan Female 01:01:56 FV40 145 01:01:35 20 Claim
391 PAUL CREGOR Male 01:01:57 MV40 246 01:01:35 45 Claim
392 Damien Holden Male 01:01:57 MV40 247 01:01:02 46 Claim
393 Sarah Ridout Female 01:01:57 FV50 146 01:01:05 11 Claim
394 Louise Palmer Female 01:01:58 Female Senior 147 01:01:06 113 Claim
395 Serifs Filiz Female 01:02:00 FV40 148 01:01:32 21 Claim
396 Rachel Mugan Female 01:02:02 Female Senior 149 01:01:13 114 Claim
397 Ben Watson Male 01:02:04 Male Senior 248 01:01:23 172 Claim
398 Lizzie Gregory Female 01:02:06 Female Senior 150 01:01:52 115 Claim
399 Elizabeth Man Female None 01:02:06 Female Senior 151 01:01:33 116 Claim
400 Tony Holland Male Ipswich Jaffa 01:02:07 MV40 249 01:01:09 47 Claim
401 Siobhan Parker Female Eton Manor AC 01:02:09 FV40 152 01:01:34 22 Claim
402 Elaine Yeung Female 01:02:10 Female Senior 153 01:01:14 117 Claim
403 Helen Essex Female 01:02:11 FV40 154 01:01:11 23 Claim
404 Izzy Coombes Female 01:02:15 Female Senior 155 01:01:23 118 Claim
405 Ingrida Valiukiene Female 01:02:15 Female Senior 156 01:02:07 119 Claim
406 Rod Seely Male 01:02:20 MV50 250 01:01:16 26 Claim
407 Alice Phillips Female 01:02:25 Female Senior 157 01:02:25 120 Claim
408 Amelia Rickenbach Female 01:02:27 Female Senior 158 01:01:37 121 Claim
409 Emily Overton Female 01:02:38 Female Senior 159 01:02:09 122 Claim
410 Dan Jones Male 01:02:52 Male Senior 251 01:02:28 173 Claim
411 Megan Holder Female 01:02:54 Female Senior 160 01:02:20 123 Claim
412 Karen McMaster Female Seapark AC 01:03:05 FV40 161 01:02:17 24 Claim
413 David Male 01:03:12 MV50 252 01:02:10 27 Claim
414 Rosalind Wright Female Grange Farm and Dunmow Runners 01:03:17 Female Senior 162 01:02:27 124 Claim
415 Catherine Jones Female 01:03:24 Female Senior 163 01:02:36 125 Claim
416 Tim Shea Male Pitsea Running Club 01:03:28 MV50 253 01:03:02 28 Claim
417 Pippa Crighton Female 01:03:35 Female Senior 164 01:02:42 126 Claim
418 Rebecca May Female 01:03:38 Female Senior 165 01:02:55 127 Claim
419 Elaine Richardson Female Havering '90 Joggers 01:03:52 FV60 166 01:03:11 4 Claim
420 Susana Da Female 01:03:55 Female Senior 167 01:03:35 128 Claim
421 Jill Hills Female 01:04:01 FV60 168 01:03:16 5 Claim
422 Johannah Hollands Female 01:04:03 FV40 169 01:03:18 25 Claim
423 Greg West Male 01:04:09 Male Senior 254 01:03:27 174 Claim
424 Y Mun Male 01:04:15 Male Senior 255 01:03:22 175 Claim
425 Rebecca Harris Female 01:04:20 Female Senior 170 01:03:26 129 Claim
426 Becky Female 01:04:30 Female Senior 171 01:03:41 130 Claim
427 David Cooper Male 01:04:33 MV50 256 01:04:00 29 Claim
428 Dom West Male 01:04:34 Male Senior 257 01:03:53 176 Claim
429 Stacey Jennings Female 01:04:36 Female Senior 172 01:03:57 131 Claim
430 Mandy Buckland Female Mandy Buckland 01:04:41 FV50 173 01:04:00 12 Claim
431 Rachel Sharp Female 01:04:43 Female Senior 174 01:04:28 132 Claim
432 Bhavini Female 01:04:44 FV40 175 01:03:44 26 Claim
433 Bernie Watson Female 01:04:44 Female Senior 176 01:04:29 133 Claim
434 Helen Skeen Female 01:04:49 FV40 177 01:04:03 27 Claim
435 Purvi Magudia Female 01:04:54 Female Senior 178 01:03:57 134 Claim
436 Filiz Hudasoy Female 01:04:56 FV50 179 01:04:32 13 Claim
437 Bethany Campbell Female 01:05:03 Female Senior 180 01:04:24 135 Claim
438 Alwin Dopwell Male 01:05:04 MV60 258 01:04:04 5 Claim
439 Annette Scholz Female Run Club East 01:05:04 FV40 181 01:05:04 28 Claim
440 Nicole McShane Female 01:05:09 Female Senior 182 01:04:48 136 Claim
441 CLAIRE WALSH Female 01:05:14 FV40 183 01:04:42 29 Claim
442 Geraldine Muyot Female 01:05:14 FV40 184 01:04:56 30 Claim
443 Maria Brill Female Havering '90 Joggers 01:05:23 FV60 185 01:04:43 6 Claim
444 Rachel Petty Female 01:05:24 Female Senior 186 01:04:41 137 Claim
445 Heidi Sharp Female 01:05:27 FV40 187 01:05:08 31 Claim
446 James Alpay Male 01:05:27 MV40 259 01:04:23 48 Claim
447 Suzanne Female Havering '90 Joggers 01:05:29 FV50 188 01:04:48 14 Claim
448 Penny Simpson Female Havering '90 Joggers 01:05:32 FV40 189 01:04:28 32 Claim
449 Nazma Khatun Female 01:05:36 Female Senior 190 01:05:25 138 Claim
450 Maggie Petty Female 01:05:40 FV60 191 01:04:58 7 Claim
451 Chantelle Woodnutt Female 01:05:43 Female Senior 192 01:04:48 139
452 Molly Glenister Female 01:05:48 Female Senior 193 01:05:02 140 Claim
453 Rachel Rowbottom Female 01:05:48 Female Senior 194 01:05:29 141 Claim
454 Holly Arnold Female 01:05:53 Female Senior 195 01:05:10 142 Claim
455 Mathew Harvey Male 01:05:56 MV40 260 01:04:48 49 Claim
456 Adam Bishop Male 01:06:09 MV40 261 01:05:45 50 Claim
457 Ying Wong Female 01:06:19 Female Senior 196 01:05:30 143 Claim
458 Fiona Sexton Female 01:06:33 Female Senior 197 01:06:33 144 Claim
459 Rebecca Rodney Female 01:06:33 Female Senior 198 01:05:42 145 Claim
460 Mary Godwin Female 01:06:41 Female Senior 199 01:05:21 146 Claim
461 Kirsty Morrison Female 01:06:43 Female Senior 200 01:06:04 147 Claim
462 Krishan Lathigra Male 01:06:44 MV40 262 01:06:14 51 Claim
463 Mark Latchford Non Binary 01:06:45 MV40 263 01:06:09 52 Claim
464 Janet Thompson Female Kent AC 01:06:46 FV60 201 01:05:42 8 Claim
465 Johanna Walsh Female 01:06:47 Female Senior 202 01:05:50 148 Claim
466 Karishma Khatri Female 01:06:48 Female Senior 203 01:06:43 149 Claim
467 Ruta Tylingo Female 01:06:49 FV40 204 01:06:41 33 Claim
468 Gillian Calliste Female Istead & Ifield harriers 01:06:56 FV50 205 01:05:59 15 Claim
469 Olivia Courtney Female 01:06:58 Female Senior 206 01:06:40 150 Claim
470 Jess Gingell Female 01:06:58 Female Senior 207 01:06:05 151 Claim
471 Sharan Thind Female 01:07:12 Female Senior 208 01:07:05 152 Claim
472 Abigail Marsh Female 01:07:19 Female Senior 209 01:06:25 153 Claim
473 Kim Adams-Howell Female 01:07:23 Female Senior 210 01:06:29 154 Claim
474 Gemma Shannon Female 01:07:47 Female Senior 211 01:07:47 155 Claim
475 Zoæ Female 01:07:58 Female Senior 212 01:06:57 156 Claim
476 Ben Stone Male 01:07:58 Male Senior 264 01:06:57 177 Claim
477 Florence Edwards Female 01:08:08 Female Senior 213 01:07:26 157 Claim
478 Krista Faber Female 01:08:11 FV40 214 01:07:35 34 Claim
479 Haylie Read Female 01:08:17 Female Senior 215 01:08:04 158 Claim
480 Rachel Platt Female 100 marathon club 01:08:23 FV40 216 01:07:12 35 Claim
481 Steve Platt Male 100 marathon club 01:08:24 MV60 265 01:07:13 6 Claim
482 Oya Unlu Female 01:08:28 FV40 217 01:08:06 36 Claim
483 Michelle Jones Female Runthrough UK 01:08:31 Female Senior 218 01:07:52 159 Claim
484 Jane Shaw Female 01:09:00 Female Senior 219 01:08:06 160 Claim
485 Laura Cowell Female 01:09:02 Female Senior 220 01:07:52 161 Claim
486 Ian Hawthorn Male Pitsea Running Club 01:09:12 MV50 266 01:08:47 30 Claim
487 Helen Wilson Female 01:09:15 Female Senior 221 01:08:15 162 Claim
488 Alistair Miller Male 01:09:15 MV40 267 01:09:15 53 Claim
489 Angela Leon Female 01:09:28 FV40 222 01:08:19 37 Claim
490 Fred Peters Male 01:09:30 MV40 268 01:08:34 54 Claim
491 Chris Stephens Male 01:09:33 MV60 269 01:08:33 7 Claim
492 Andi Wright Female Havering '90 Joggers 01:09:34 FV40 223 01:08:54 38 Claim
493 Jennifer Penney Female Jennifer Penney 01:09:58 Female Senior 224 01:09:22 163 Claim
494 Alice Glenister Female 01:10:12 Female Senior 225 01:09:25 164 Claim
495 Stephanie Rashbrook Female Eton Manor AC 01:10:14 Female Senior 226 01:09:20 165 Claim
496 Marcelo Male 01:10:23 MV40 270 01:09:28 55 Claim
497 Juliet Oliver Female 01:10:23 FV40 227 01:09:28 39
498 Daria Henty Female Daria 01:10:31 Female Senior 228 01:09:21 166 Claim
499 John Gibson Male Serpentine 01:10:33 MV70 271 01:09:27 2 Claim
500 Hannah Hennesey Female 01:10:42 Female Senior 229 01:10:00 167 Claim
501 Keiley Gardner Female Harold wood Running Club 01:10:51 FV50 230 01:09:47 16 Claim
502 Sem Lee Female 01:11:23 Female Senior 231 01:10:22 168 Claim
503 Katy Fuller Female 01:11:23 Female Senior 232 01:10:23 169 Claim
504 Marjorie Fairlamb Female 01:11:57 FV60 233 01:11:05 9 Claim
505 Paula Fairlamb Female Orion Harriers 01:11:59 Female Senior 234 01:11:05 170 Claim
506 Eleanor Drew Female 01:12:38 Female Senior 235 01:11:45 171 Claim
507 Louise Tucker Female 01:12:40 Female Senior 236 01:11:35 172 Claim
508 Jacqueline Female Orion Harriers 01:12:53 FV60 237 01:11:48 10 Claim
509 Harriet Bird Female 01:13:13 Female Senior 238 01:12:38 173 Claim
510 Steve Hamm Male 01:13:18 MV50 272 01:12:28 31 Claim
511 Emily Female 01:13:26 Female Senior 239 01:13:02 174 Claim
512 Rosie Craggs Female 01:13:35 Female Senior 240 01:13:07 175 Claim
513 Sinead O'Neill Female 01:13:35 Female Senior 241 01:12:49 176 Claim
514 Laura Shattock Female 01:13:42 FV40 242 01:12:34 40 Claim
515 Isabel Wood Female 01:13:47 Female Senior 243 01:13:23 177 Claim
516 Nicholas McLoughlin Male 01:13:47 Male Senior 273 01:13:47 178 Claim
517 Amy Prentice Female 01:13:57 Female Senior 244 01:12:51 178 Claim
518 Angela Sandow Female 01:14:01 Female Senior 245 01:12:54 179 Claim
519 Christopher Quill Male 01:14:13 MV50 274 01:13:36 32 Claim
520 Louise Pinn Female 01:14:27 Female Senior 246 01:13:19 180 Claim
521 Danielle Kirkby Female 01:14:33 Female Senior 247 01:13:23 181 Claim
522 Claudia Preston Female 01:14:34 Female Senior 248 01:13:51 182 Claim
523 Rebecca Sandow Female 01:14:34 Female Senior 249 01:13:28 183 Claim
524 Natalie Tucker Female 01:14:35 Female Senior 250 01:13:30 184 Claim
525 Ian Metcalfe Male 01:14:43 MV50 275 01:13:48 33 Claim
526 India Female 01:14:49 Female Senior 251 01:14:13 185 Claim
527 Isabella Sheppard-Capurro Female 01:14:49 Female Senior 252 01:14:15 186 Claim
528 Olayemi Asimolowo Female 01:15:20 FV40 253 01:14:33 41 Claim
529 Courtney Mackness Female 01:15:45 Female Senior 254 01:15:25 187 Claim
530 Hannah Elliott Female 01:15:47 Female Senior 255 01:14:49 188 Claim
531 Kate Pearse Female 01:15:51 Female Senior 256 01:14:44 189 Claim
532 Sandra Pearse Female 01:15:54 FV50 257 01:14:47 17 Claim
533 Jacqui Pamphillion Female 01:16:11 FV50 258 01:15:20 18 Claim
534 Nina Kuh Female 01:16:12 Female Senior 259 01:15:05 190 Claim
535 Sheila Aquino Female 01:17:08 FV40 260 01:16:51 42 Claim
536 Dannie Owens Female 01:17:10 Female Senior 261 01:16:52 191 Claim
537 Kayleigh Cumber Female 01:17:11 Female Senior 262 01:16:12 192 Claim
538 Jamie Finn Male 01:18:03 MV40 276 01:17:07 56 Claim
539 Ioana Fetic Female 01:18:13 Female Senior 263 01:17:36 193 Claim
540 Laura Mould Female 01:19:23 Female Senior 264 01:18:11 194 Claim
541 Ailsa Mould Female 01:19:23 Female Senior 265 01:18:12 195 Claim
542 Sarah Fletcher Female 01:19:24 Female Senior 266 01:19:08 196 Claim
543 Samantha Grace Female 01:19:25 Female Senior 267 01:18:30 197 Claim
544 Gregory Heeger Male 01:19:26 Male Senior 277 01:18:31 179 Claim
545 Richard Male 01:19:28 MV40 278 01:18:16 57 Claim
546 Siobhain Female 01:20:39 FV50 268 01:20:05 19 Claim
547 Susan Willmott Female 01:20:46 FV50 269 01:20:05 20 Claim
548 Mollie Kerslake Female 01:20:50 Female Senior 270 01:20:02 198 Claim
549 Demi Ugurtay Female 01:25:35 FV40 271 01:25:10 43 Claim
550 Karen Avis Female 01:25:44 FV50 272 01:25:35 21 Claim
551 Geetha Yogan Female 01:30:51 Female Senior 273 01:30:39 199 Claim
552 Lesley Young Female Dulwich Park Runners 01:34:32 FV60 274 01:33:18 11 Claim